Time;durP1;ratioP1;P1;durP2;ratioP2;P2;SDS_P1;SDS_P2;PMS_P1;PMS_P2;Temp;Humidity;BMP_temperature;BMP_pressure;BME280_temperature;BME280_humidity;BME280_pressure;Samples;Min_cycle;Max_cycle;Signal;HPM_P1;HPM_P2
2024/04/21 00:04:16;;;;;;;;;;;;;;;;;;;;;
2024/04/21 00:08:12;;;;;;;12.70;6.90;;;;;;;1.77;78.97;100551.65;128721;1270;128358;-61
2024/04/21 00:12:02;;;;;;;13.80;7.20;;;;;;;1.76;78.83;100549.02;128166;1281;115026;-62
2024/04/21 00:16:06;;;;;;;12.40;7.40;;;;;;;1.75;79.26;100550.08;127527;1280;114953;-59
2024/04/21 00:19:59;;;;;;;15.00;8.30;;;;;;;1.75;79.69;100546.75;122538;1290;114810;-60
2024/04/21 00:23:43;;;;;;;;;;;;;;;;;;;;;
2024/04/21 00:27:23;;;;;;;;;;;;;;;;;;;;;
2024/04/21 00:31:25;;;;;;;14.10;7.10;;;;;;;1.80;80.06;100550.92;125306;1314;128228;-60
2024/04/21 00:35:09;;;;;;;11.80;7.20;;;;;;;1.85;80.22;100548.94;125049;1324;114949;-62
2024/04/21 00:38:46;;;;;;;13.50;6.50;;;;;;;1.89;80.16;100551.90;125152;1324;114864;-62
2024/04/21 00:42:48;;;;;;;13.60;6.90;;;;;;;1.94;80.41;100549.55;124938;1324;115073;-60
2024/04/21 00:46:49;;;;;;;11.20;6.60;;;;;;;2.00;80.29;100549.48;124252;1325;115010;-61
2024/04/21 00:50:33;;;;;;;11.20;6.30;;;;;;;2.07;80.32;100548.89;124928;1327;129474;-64
2024/04/21 00:53:59;;;;;;;11.00;5.70;;;;;;;2.16;80.69;100551.45;125700;1320;114814;-61
2024/04/21 00:57:38;;;;;;;13.10;7.70;;;;;;;2.22;80.57;100552.79;126439;1310;114898;-61
2024/04/21 01:01:31;;;;;;;11.20;6.80;;;;;;;2.29;80.61;100552.36;126322;1311;114941;-62
2024/04/21 01:04:52;;;;;;;;;;;;;;;;;;;;;
2024/04/21 01:08:35;;;;;;;13.00;6.70;;;;;;;2.45;80.96;100556.23;126448;1306;129911;-60
2024/04/21 01:12:27;;;;;;;11.00;6.30;;;;;;;2.53;81.27;100556.83;125930;1313;114876;-60
2024/04/21 01:15:53;;;;;;;13.60;6.70;;;;;;;2.58;80.76;100556.77;125485;1305;114905;-61
2024/04/21 01:19:39;;;;;;;;;;;;;;;;;;;;;
2024/04/21 01:23:42;;;;;;;12.50;7.10;;;;;;;2.67;80.52;100559.29;124558;1316;114955;-61
2024/04/21 01:27:11;;;;;;;12.00;6.50;;;;;;;2.71;80.20;100564.36;124560;1311;128656;-61
2024/04/21 01:30:45;;;;;;;12.20;6.70;;;;;;;2.75;80.39;100567.13;124520;1330;114994;-60
2024/04/21 01:38:40;;;;;;;11.80;8.10;;;;;;;2.85;80.27;100566.83;126389;1295;635941;-61
2024/04/21 01:42:30;;;;;;;11.70;7.50;;;;;;;2.87;80.44;100572.45;128389;1272;128879;-60
2024/04/21 01:46:16;;;;;;;10.60;6.10;;;;;;;2.92;80.61;100566.38;126881;1307;114958;-60
2024/04/21 01:50:11;;;;;;;;;;;;;;;;;;;;;
2024/04/21 01:54:05;;;;;;;;;;;;;;;;;;;;;
2024/04/21 01:58:07;;;;;;;10.40;6.10;;;;;;;3.01;80.24;100567.14;125390;1305;116604;-61
2024/04/21 02:01:38;;;;;;;11.50;6.10;;;;;;;3.02;80.12;100567.48;124572;1310;114875;-61
2024/04/21 02:05:03;;;;;;;;;;;;;;;3.03;79.91;100567.83;124265;1310;130566;-61
2024/04/21 02:12:44;;;;;;;;;;;;;;;;;;;;;
2024/04/21 02:16:42;;;;;;;;;;;;;;;;;;;;;
2024/04/21 02:20:38;;;;;;;13.60;5.70;;;;;;;3.11;79.78;100564.71;127542;1302;115415;-60
2024/04/21 02:24:35;;;;;;;;;;;;;;;;;;;;;
2024/04/21 02:28:45;;;;;;;11.90;6.60;;;;;;;3.13;79.61;100562.73;123164;1305;114780;-60
2024/04/21 02:32:47;;;;;;;10.00;5.60;;;;;;;3.14;79.46;100559.02;126420;1302;114924;-62
2024/04/21 02:36:27;;;;;;;;;;;;;;;3.16;79.68;100561.64;125730;1318;115080;-60
2024/04/21 02:39:35;;;;;;;11.90;6.20;;;;;;;3.18;79.50;100563.02;126833;1245;129736;31
2024/04/21 02:43:37;;;;;;;12.10;6.40;;;;;;;3.19;79.36;100567.95;130234;1277;115130;-60
2024/04/21 02:47:09;;;;;;;10.80;7.10;;;;;;;3.20;79.39;100572.70;129248;1285;115328;-61
2024/04/21 02:50:55;;;;;;;10.00;5.30;;;;;;;3.19;79.16;100574.30;128818;1289;114802;-61
2024/04/21 02:55:08;;;;;;;10.20;6.90;;;;;;;3.18;79.19;100575.19;128111;1274;115060;-60
2024/04/21 02:59:01;;;;;;;11.30;6.40;;;;;;;3.20;79.24;100576.23;127134;1282;129959;-60
2024/04/21 03:03:01;;;;;;;;;;;;;;;;;;;;;
2024/04/21 03:07:01;;;;;;;;;;;;;;;;;;;;;
2024/04/21 03:15:25;;;;;;;9.80;6.00;;;;;;;3.19;78.92;100578.35;126109;1297;636045;-62
2024/04/21 03:19:24;;;;;;;;;;;;;;;;;;;;;
2024/04/21 03:23:27;;;;;;;10.80;6.10;;;;;;;3.16;78.80;100578.39;126209;1298;115272;-60
2024/04/21 03:27:16;;;;;;;8.70;5.70;;;;;;;3.15;78.98;100580.36;121229;1323;5477021;-60
2024/04/21 03:31:01;;;;;;;10.70;6.60;;;;;;;3.14;78.71;100582.31;124679;1310;115359;-61
2024/04/21 03:34:30;;;;;;;11.40;6.30;;;;;;;3.14;78.67;100582.84;124713;1322;115472;-60
2024/04/21 03:37:55;;;;;;;13.40;5.50;;;;;;;3.14;78.49;100579.48;124307;1313;115288;-60
2024/04/21 03:41:39;;;;;;;10.80;5.30;;;;;;;3.12;78.49;100583.05;124717;1309;128763;-61
2024/04/21 03:45:22;;;;;;;11.00;6.40;;;;;;;3.11;78.72;100587.29;123901;1319;114965;-61
2024/04/21 03:53:51;;;;;;;8.80;5.00;;;;;;;3.10;78.32;100590.66;125521;1300;636376;-60
2024/04/21 03:57:29;;;;;;;;;;;;;;;;;;;;;
2024/04/21 04:01:28;;;;;;;;;;;;;;;;;;;;;
2024/04/21 04:05:20;;;;;;;10.20;5.20;;;;;;;2.96;78.26;100596.86;127980;1298;115698;-60
2024/04/21 04:08:50;;;;;;;12.20;6.20;;;;;;;2.94;78.37;100603.58;123366;1281;114960;-60
2024/04/21 04:12:40;;;;;;;;;;;;;;;;;;;;;
2024/04/21 04:16:25;;;;;;;10.10;6.10;;;;;;;2.88;78.23;100610.54;126726;1289;114949;-61
2024/04/21 04:20:12;;;;;;;14.10;6.60;;;;;;;2.89;78.53;100609.81;126721;1288;129893;-61
2024/04/21 04:23:44;;;;;;;10.50;4.20;;;;;;;2.91;78.39;100617.37;126181;1313;115205;-60
2024/04/21 04:27:17;;;;;;;11.60;5.80;;;;;;;2.88;77.15;100622.20;126184;1297;114964;-59
2024/04/21 04:31:19;;;;;;;13.30;7.80;;;;;;;2.81;76.85;100623.52;126156;1294;115058;-61
2024/04/21 04:35:11;;;;;;;;;;;;;;;;;;;;;
2024/04/21 04:39:03;;;;;;;;;;;;;;;;;;;;;
2024/04/21 04:42:31;;;;;;;;;;;;;;;;;;;;;
2024/04/21 04:46:33;;;;;;;6.80;4.20;;;;;;;2.87;75.52;100630.84;126394;1288;114957;-60
2024/04/21 04:50:22;;;;;;;5.30;2.50;;;;;;;2.89;74.48;100634.34;125977;1315;115348;-60
2024/04/21 04:54:02;;;;;;;;;;;;;;;;;;;;;
2024/04/21 04:57:56;;;;;;;;;;;;;;;;;;;;;
2024/04/21 05:01:36;;;;;;;7.10;4.20;;;;;;;3.42;73.85;100635.75;124729;1327;115051;-61
2024/04/21 05:05:17;;;;;;;5.60;3.00;;;;;;;3.98;73.91;100633.98;124674;1327;115245;-61
2024/04/21 05:09:19;;;;;;;4.00;2.50;;;;;;;4.64;71.69;100638.10;124697;1311;114850;-61
2024/04/21 05:13:03;;;;;;;;;;;;;;;;;;;;;
2024/04/21 05:16:48;;;;;;;;;;;;;;;;;;;;;
2024/04/21 05:20:20;;;;;;;4.80;2.50;;;;;;;6.83;68.88;100633.77;125194;1316;114878;-61
2024/04/21 05:23:41;;;;;;;;;;;;;;;;;;;;;
2024/04/21 05:27:02;;;;;;;23.50;6.60;;;;;;;7.54;63.60;100625.08;126099;1303;114842;-63
2024/04/21 05:30:41;;;;;;;8.10;3.60;;;;;;;7.32;63.51;100625.75;126788;1283;114899;-63
2024/04/21 05:34:37;;;;;;;;;;;;;;;;;;;;;
2024/04/21 05:38:37;;;;;;;;;;;;;;;;;;;;;
2024/04/21 05:42:34;;;;;;;2.60;1.70;;;;;;;6.21;61.44;100637.75;127581;1279;114943;-62
2024/04/21 05:46:12;;;;;;;;;;;;;;;;;;;;;
2024/04/21 05:50:04;;;;;;;3.20;2.20;;;;;;;5.29;62.43;100647.90;127815;1284;114865;-62
2024/04/21 05:53:28;;;;;;;5.10;2.70;;;;;;;5.21;63.84;100650.73;127447;1283;128099;-62
2024/04/21 05:57:18;;;;;;;3.70;2.10;;;;;;;5.56;63.74;100651.03;127267;1282;114785;-61
2024/04/21 06:01:08;;;;;;;1.50;1.00;;;;;;;5.86;63.75;100656.86;127095;1302;114937;-62
2024/04/21 06:04:51;;;;;;;5.00;2.50;;;;;;;6.14;62.69;100653.02;126941;1289;115132;-61
2024/04/21 06:08:53;;;;;;;4.00;2.80;;;;;;;6.34;61.81;100658.52;126129;1297;114940;-61
2024/04/21 06:12:53;;;;;;;;;;;;;;;;;;;;;
2024/04/21 06:16:34;;;;;;;4.70;2.60;;;;;;;7.04;62.05;100649.14;126101;1313;115003;-61
2024/04/21 06:20:29;;;;;;;5.30;2.50;;;;;;;7.66;61.34;100645.48;126139;1291;115051;-63
2024/04/21 06:24:21;;;;;;;3.70;2.10;;;;;;;8.19;60.75;100639.64;126287;1291;114976;-62
2024/04/21 06:28:23;;;;;;;3.20;1.90;;;;;;;8.72;60.46;100643.73;125774;1316;115000;-62
2024/04/21 06:32:23;;;;;;;3.50;2.50;;;;;;;9.08;59.16;100644.71;125385;1321;128516;-62
2024/04/21 06:35:52;;;;;;;3.70;1.90;;;;;;;9.49;59.74;100642.98;124859;1327;115023;-62
2024/04/21 06:39:33;;;;;;;2.80;2.00;;;;;;;9.86;57.98;100647.72;124633;1316;114990;-61
2024/04/21 06:43:20;;;;;;;;;;;;;;;;;;;;;
2024/04/21 06:47:02;;;;;;;3.40;1.50;;;;;;;10.16;55.75;100640.27;125661;1315;114875;-62
2024/04/21 06:50:52;;;;;;;;;;;;;;;;;;;;;
2024/04/21 06:54:41;;;;;;;3.70;1.70;;;;;;;10.02;54.18;100648.67;125641;1316;114915;-63
2024/04/21 06:58:44;;;;;;;3.50;1.70;;;;;;;9.35;53.24;100646.34;125318;1303;114809;-62
2024/04/21 07:02:26;;;;;;;2.30;1.70;;;;;;;8.91;53.66;100648.54;124701;1307;115736;-62
2024/04/21 07:05:48;;;;;;;6.30;2.30;;;;;;;8.85;52.32;100644.50;124922;1323;115103;-62
2024/04/21 07:09:29;;;;;;;5.30;2.10;;;;;;;8.94;53.18;100643.80;125618;1303;129810;-62
2024/04/21 07:13:11;;;;;;;3.20;2.20;;;;;;;9.30;51.96;100646.73;126521;1296;114797;-62
2024/04/21 07:16:47;;;;;;;4.90;1.50;;;;;;;9.11;51.62;100653.17;126061;1313;114890;-62
2024/04/21 07:20:48;;;;;;;;;;;;;;;;;;;;;
2024/04/21 07:24:43;;;;;;;4.40;1.80;;;;;;;8.07;52.55;100657.84;125818;1316;117098;-62
2024/04/21 07:28:45;;;;;;;5.20;2.50;;;;;;;7.88;53.59;100665.59;125617;1296;129771;-62
2024/04/21 07:32:44;;;;;;;3.30;2.70;;;;;;;7.85;53.92;100666.92;125536;1297;114948;-62
2024/04/21 07:36:46;;;;;;;3.50;2.20;;;;;;;7.72;53.93;100660.94;125834;1316;115007;-61
2024/04/21 07:40:33;;;;;;;;;;;;;;;;;;;;;
2024/04/21 07:44:17;;;;;;;;;;;;;;;;;;;;;
2024/04/21 07:48:13;;;;;;;4.10;2.50;;;;;;;6.95;53.66;100671.43;124990;1324;129797;-61
2024/04/21 07:52:00;;;;;;;5.50;2.30;;;;;;;6.74;53.77;100674.15;125070;1306;115052;-61
2024/04/21 07:55:39;;;;;;;4.30;2.20;;;;;;;6.59;54.44;100674.40;125414;1302;114996;-61
2024/04/21 07:59:04;;;;;;;4.80;3.10;;;;;;;6.48;54.25;100672.52;125451;1320;114917;-62
2024/04/21 08:02:39;;;;;;;;;;;;;;;6.47;54.95;100672.02;125662;1316;114837;-63
2024/04/21 08:06:12;;;;;;;5.30;3.10;;;;;;;6.74;55.49;100672.89;126299;1292;129718;-62
2024/04/21 08:10:04;;;;;;;3.40;2.40;;;;;;;7.05;55.07;100669.54;126383;1289;114988;-63
2024/04/21 08:13:59;;;;;;;;;;;;;;;;;;;;;
2024/04/21 08:17:49;;;;;;;5.10;3.30;;;;;;;7.72;54.45;100670.04;128171;1289;115424;-62
2024/04/21 08:21:31;;;;;;;;;;;;;;;;;;;;;
2024/04/21 08:25:09;;;;;;;4.60;1.90;;;;;;;8.11;54.56;100673.20;128558;1283;129132;-63
2024/04/21 08:28:53;;;;;;;;;;;;;;;;;;;;;
2024/04/21 08:32:33;;;;;;;5.90;3.30;;;;;;;8.11;53.13;100679.79;129099;1273;115136;-62
2024/04/21 08:36:36;;;;;;;4.00;2.80;;;;;;;8.07;53.82;100682.42;128677;1269;114732;-62
2024/04/21 08:40:33;;;;;;;4.50;3.20;;;;;;;8.16;53.58;100680.68;127621;1283;114879;-62
2024/04/21 08:44:04;;;;;;;5.30;2.90;;;;;;;8.12;53.10;100683.33;126376;1310;129675;-62
2024/04/21 08:47:58;;;;;;;;;;;;;;;;;;;;;
2024/04/21 08:51:54;;;;;;;4.90;3.10;;;;;;;7.92;53.11;100688.05;125538;1301;114870;-62
2024/04/21 08:55:37;;;;;;;;;;;;;;;;;;;;;
2024/04/21 09:07:47;;;;;;;;;;;;;;;;;;;;;
2024/04/21 09:11:43;;;;;;;5.70;3.60;;;;;;;7.30;53.07;100691.55;127686;1283;114978;-62
2024/04/21 09:15:40;;;;;;;2.60;1.80;;;;;;;7.21;52.88;100696.45;123241;1286;5508271;-62
2024/04/21 09:19:35;;;;;;;9.30;4.90;;;;;;;7.08;53.49;100692.38;127272;1303;114894;-62
2024/04/21 09:23:38;;;;;;;6.40;3.80;;;;;;;7.20;53.72;100689.38;126716;1308;114867;-62
2024/04/21 09:27:30;;;;;;;;;;;;;;;;;;;;;
2024/04/21 09:31:10;;;;;;;;;;;;;;;;;;;;;
2024/04/21 09:35:30;;;;;;;;;;;;;;;;;;;;;
2024/04/21 09:39:18;;;;;;;5.00;3.20;;;;;;;7.47;53.75;100687.87;128218;1288;128856;-62
2024/04/21 09:43:21;;;;;;;6.50;3.20;;;;;;;7.23;54.07;100685.72;127059;1293;116350;-62
2024/04/21 09:47:14;;;;;;;4.60;2.80;;;;;;;7.16;53.85;100686.27;123922;1295;3325152;-64
2024/04/21 09:50:55;;;;;;;3.90;1.80;;;;;;;7.22;54.34;100681.67;126103;1296;115454;-63
2024/04/21 09:54:45;;;;;;;5.00;3.30;;;;;;;7.43;54.52;100679.45;126358;1296;114942;-62
2024/04/21 09:58:17;;;;;;;6.10;3.10;;;;;;;7.78;53.96;100671.96;125295;1320;130083;-61
2024/04/21 10:02:18;;;;;;;;;;;;;;;;;;;;;
2024/04/21 10:05:56;;;;;;;4.10;2.70;;;;;;;7.88;52.78;100678.38;124259;1328;114911;-62
2024/04/21 10:14:22;;;;;;;4.80;3.80;;;;;;;7.95;52.85;100681.92;125912;1298;636155;-62
2024/04/21 10:18:23;;;;;;;4.70;2.80;;;;;;;8.13;51.94;100680.78;128173;1278;129889;-61
2024/04/21 10:22:25;;;;;;;;;;;;;;;;;;;;;
2024/04/21 10:26:29;;;;;;;4.90;3.50;;;;;;;8.03;53.38;100682.37;124189;1278;5536153;-62
2024/04/21 10:30:02;;;;;;;7.80;4.40;;;;;;;8.00;52.87;100685.84;127447;1303;114926;-62
2024/04/21 10:33:44;;;;;;;;;;;;;;;;;;;;;
2024/04/21 10:38:03;;;;;;;5.80;3.40;;;;;;;7.72;52.64;100691.19;126727;1310;128652;-63
2024/04/21 10:42:11;;;;;;;4.00;2.30;;;;;;;7.59;53.07;100690.33;126660;1287;114982;-62
2024/04/21 10:45:54;;;;;;;3.80;2.80;;;;;;;7.56;52.70;100692.19;125700;1318;114894;-62
2024/04/21 10:49:39;;;;;;;4.00;2.30;;;;;;;7.63;53.07;100686.12;125168;1302;115024;-62
2024/04/21 10:53:08;;;;;;;5.70;3.20;;;;;;;7.86;52.90;100686.47;124821;1328;115031;-62
2024/04/21 10:57:01;;;;;;;;;;;;;;;;;;;;;
2024/04/21 11:00:52;;;;;;;;;;;;;;;;;;;;;
2024/04/21 11:04:55;;;;;;;3.80;2.30;;;;;;;8.42;52.55;100680.55;125002;1310;114909;-61
2024/04/21 11:08:48;;;;;;;;;;;;;;;;;;;;;
2024/04/21 11:20:59;;;;;;;4.20;1.90;;;;;;;9.18;52.12;100680.15;125959;1295;638548;-63
2024/04/21 11:24:50;;;;;;;4.10;3.10;;;;;;;9.40;51.23;100678.95;127924;1282;128648;-62
2024/04/21 11:28:22;;;;;;;;;;;;;;;;;;;;;
2024/04/21 11:32:12;;;;;;;;;;;;;;;;;;;;;
2024/04/21 11:36:17;;;;;;;3.30;2.00;;;;;;;9.98;51.22;100674.52;121954;1310;115137;-62
2024/04/21 11:40:20;;;;;;;3.60;2.20;;;;;;;10.19;50.93;100670.30;125425;1320;114985;-62
2024/04/21 11:44:19;;;;;;;2.60;2.00;;;;;;;10.43;50.80;100666.29;125460;1318;115051;-65
2024/04/21 11:47:53;;;;;;;;;;;;;;;;;;;;;
2024/04/21 11:51:39;;;;;;;3.60;3.30;;;;;;;10.75;49.98;100671.68;124219;1324;115009;-63
2024/04/21 11:59:32;;;;;;;3.30;2.10;;;;;;;10.66;49.65;100668.11;125944;1303;636104;-64
2024/04/21 12:03:38;;;;;;;2.60;1.80;;;;;;;10.71;49.89;100670.42;128919;1276;128173;-62
2024/04/21 12:07:30;;;;;;;3.10;1.90;;;;;;;10.61;49.24;100672.64;128020;1281;114956;-62
2024/04/21 12:11:32;;;;;;;4.70;2.10;;;;;;;10.57;49.05;100676.41;122472;1312;5402050;-62
2024/04/21 12:15:18;;;;;;;;;;;;;;;;;;;;;
2024/04/21 12:19:13;;;;;;;4.10;2.90;;;;;;;10.31;48.68;100677.11;124639;1328;114908;-63
2024/04/21 12:22:49;;;;;;;;;;;;;;;;;;;;;
2024/04/21 12:26:26;;;;;;;;;;;;;;;;;;;;;
2024/04/21 12:30:34;;;;;;;4.60;2.50;;;;;;;9.87;48.92;100678.35;125927;1298;636026;-64
2024/04/21 12:37:57;;;;;;;;;;;;;;;;;;;;;
2024/04/21 12:41:46;;;;;;;2.90;2.00;;;;;;;10.06;49.70;100676.02;128948;1277;114807;-63
2024/04/21 12:45:10;;;;;;;3.30;2.60;;;;;;;10.14;49.56;100679.58;125201;1280;114747;-63
2024/04/21 12:48:51;;;;;;;4.80;2.80;;;;;;;10.19;49.36;100679.20;129102;1288;114748;-62
2024/04/21 12:56:38;;;;;;;;;;;;;;;;;;;;;
2024/04/21 13:00:35;;;;;;;4.70;2.50;;;;;;;10.37;48.83;100670.98;128352;1289;115232;-63
2024/04/21 13:04:38;;;;;;;4.20;2.50;;;;;;;10.27;49.06;100669.58;127978;1299;114892;-63
2024/04/21 13:12:28;;;;;;;5.00;3.60;;;;;;;9.79;48.09;100670.65;127508;1299;115128;-62
2024/04/21 13:16:11;;;;;;;;;;;;;;;;;;;;;
2024/04/21 13:19:45;;;;;;;4.30;3.20;;;;;;;9.29;48.99;100672.08;126579;1292;115497;-63
2024/04/21 13:23:00;;;;;;;;;;;;;;;;;;;;;
2024/04/21 13:26:47;;;;;;;4.50;2.70;;;;;;;9.11;50.17;100672.39;126557;1286;114945;-62
2024/04/21 13:30:32;;;;;;;5.60;2.20;;;;;;;9.27;50.52;100668.06;125960;1296;114904;-63
2024/04/21 13:34:13;;;;;;;6.20;3.40;;;;;;;9.38;50.28;100668.90;126703;1292;128748;-63
2024/04/21 13:37:31;;;;;;;3.60;3.00;;;;;;;9.29;50.41;100670.09;126118;1313;114971;-62
2024/04/21 13:40:56;;;;;;;4.90;3.00;;;;;;;9.09;50.02;100672.84;126503;1291;114949;-62
2024/04/21 13:44:28;;;;;;;;;;;;;;;;;;;;;
2024/04/21 13:48:14;;;;;;;;;;;;;;;;;;;;;
2024/04/21 13:51:57;;;;;;;5.80;3.30;;;;;;;8.56;50.45;100675.63;126590;1303;130796;-63
2024/04/21 13:55:55;;;;;;;4.70;3.80;;;;;;;8.46;50.65;100675.60;126574;1303;114971;-63
2024/04/21 13:59:36;;;;;;;;;;;;;;;;;;;;;
2024/04/21 14:03:06;;;;;;;;;;;;;;;;;;;;;
2024/04/21 14:07:19;;;;;;;5.10;3.00;;;;;;;8.02;51.35;100686.31;127611;1294;114932;-63
2024/04/21 14:11:19;;;;;;;;;;;;;;;;;;;;;
2024/04/21 14:14:39;;;;;;;5.00;3.20;;;;;;;7.68;51.89;100688.80;127445;1299;114932;-61
2024/04/21 14:18:26;;;;;;;5.00;2.90;;;;;;;7.58;51.86;100686.98;127866;1282;114854;-62
2024/04/21 14:22:14;;;;;;;;;;;;;;;;;;;;;
2024/04/21 14:25:55;;;;;;;4.80;2.70;;;;;;;7.49;52.53;100687.98;127273;1302;114862;-62
2024/04/21 14:29:46;;;;;;;5.00;3.50;;;;;;;7.39;52.47;100686.84;127173;1286;129816;-62
2024/04/21 14:33:15;;;;;;;7.90;4.90;;;;;;;7.39;53.03;100691.98;127172;1285;114962;-62
2024/04/21 14:36:52;;;;;;;;;;;;;;;;;;;;;
2024/04/21 14:40:48;;;;;;;5.40;3.70;;;;;;;7.40;53.20;100691.44;127381;1304;114868;-62
2024/04/21 14:43:55;;;;;;;6.50;3.40;;;;;;;7.44;53.43;100691.14;126790;1306;115018;-62
2024/04/21 14:47:33;;;;;;;5.70;3.20;;;;;;;7.52;53.88;100691.42;127214;1306;129948;-62
2024/04/21 14:51:17;;;;;;;4.50;3.00;;;;;;;7.66;53.61;100684.61;126950;1289;114905;-63
2024/04/21 14:55:06;;;;;;;;;;;;;;;;;;;;;
2024/04/21 14:58:36;;;;;;;4.50;2.50;;;;;;;8.07;53.70;100682.97;127548;1290;115193;-62
2024/04/21 15:02:06;;;;;;;4.30;3.10;;;;;;;8.19;53.31;100682.55;127846;1283;114955;-63
2024/04/21 15:05:43;;;;;;;4.90;2.50;;;;;;;8.22;52.89;100681.39;127882;1287;128712;-62
2024/04/21 15:09:45;;;;;;;4.30;2.50;;;;;;;8.20;52.64;100686.08;128881;1277;114923;-62
2024/04/21 15:13:44;;;;;;;5.20;2.20;;;;;;;8.05;52.67;100682.30;128186;1284;115032;-62
2024/04/21 15:17:39;;;;;;;5.80;3.20;;;;;;;8.02;53.42;100680.80;128331;1276;114862;-62
2024/04/21 15:21:47;;;;;;;6.00;3.40;;;;;;;7.93;53.26;100679.32;128397;1274;114831;-62
2024/04/21 15:25:35;;;;;;;6.00;4.00;;;;;;;7.84;53.29;100680.12;127150;1296;129906;-62
2024/04/21 15:29:36;;;;;;;6.80;4.00;;;;;;;7.76;52.70;100674.50;126997;1287;114927;-62
2024/04/21 15:33:03;;;;;;;5.80;4.30;;;;;;;7.61;53.33;100674.09;125927;1310;114962;-62
2024/04/21 15:40:39;;;;;;;5.00;3.00;;;;;;;7.43;53.17;100684.22;126173;1294;636336;-63
2024/04/21 15:43:53;;;;;;;4.10;2.80;;;;;;;7.34;53.67;100680.08;128969;1272;131501;-62
2024/04/21 15:47:27;;;;;;;5.80;3.50;;;;;;;7.30;53.72;100676.79;129001;1271;114752;-62
2024/04/21 15:50:50;;;;;;;;;;;;;;;;;;;;;
2024/04/21 15:54:36;;;;;;;6.00;4.10;;;;;;;7.20;53.86;100669.83;124683;1288;5428708;-62
2024/04/21 15:58:29;;;;;;;4.90;3.10;;;;;;;7.13;53.93;100668.26;128157;1289;114938;-62
2024/04/21 16:01:44;;;;;;;;;;;;;;;;;;;;;
2024/04/21 16:05:47;;;;;;;;;;;;;;;;;;;;;
2024/04/21 16:14:14;;;;;;;4.20;2.60;;;;;;;6.95;54.60;100671.80;126078;1293;636289;-62
2024/04/21 16:17:48;;;;;;;4.50;3.40;;;;;;;6.97;54.82;100674.55;128181;1281;128833;-61
2024/04/21 16:21:45;;;;;;;;;;;;;;;;;;;;;
2024/04/21 16:25:39;;;;;;;4.60;3.00;;;;;;;6.93;54.62;100683.03;127578;1294;114872;-61
2024/04/21 16:29:07;;;;;;;5.00;3.60;;;;;;;6.89;55.21;100684.73;123547;1282;115043;-61
2024/04/21 16:32:25;;;;;;;3.70;2.50;;;;;;;6.85;54.91;100687.17;127402;1297;114937;-61
2024/04/21 16:36:12;;;;;;;4.50;3.20;;;;;;;6.75;55.01;100690.09;127007;1291;114797;-61
2024/04/21 16:40:10;;;;;;;7.20;2.70;;;;;;;6.73;55.22;100694.05;126442;1308;128878;-61
2024/04/21 16:43:51;;;;;;;;;;;;;;;;;;;;;
2024/04/21 16:47:24;;;;;;;5.30;2.90;;;;;;;6.69;55.56;100692.91;125314;1315;114997;-62
2024/04/21 16:51:09;;;;;;;;;;;;;;;;;;;;;
2024/04/21 16:54:44;;;;;;;4.60;2.70;;;;;;;6.57;55.51;100695.89;124635;1311;114969;-61
2024/04/21 16:58:32;;;;;;;;;;;;;;;;;;;;;
2024/04/21 17:02:47;;;;;;;7.80;4.00;;;;;;;6.55;56.36;100695.60;125552;1300;640591;-61
2024/04/21 17:06:30;;;;;;;;;;;;;;;;;;;;;
2024/04/21 17:10:02;;;;;;;4.90;2.60;;;;;;;6.50;56.24;100693.42;128115;1278;114944;-62
2024/04/21 17:13:57;;;;;;;5.40;3.50;;;;;;;6.45;56.42;100695.87;127999;1282;114935;-62
2024/04/21 17:17:38;;;;;;;5.20;2.90;;;;;;;6.40;56.43;100698.48;125453;1284;115351;-62
2024/04/21 17:21:32;;;;;;;5.50;2.80;;;;;;;6.31;56.54;100700.12;127419;1294;114858;-63
2024/04/21 17:25:06;;;;;;;6.30;3.50;;;;;;;6.23;56.63;100704.40;126544;1308;115006;-62
2024/04/21 17:28:55;;;;;;;6.50;3.50;;;;;;;6.20;56.98;100706.77;126626;1289;128915;-61
2024/04/21 17:32:29;;;;;;;;;;;;;;;;;;;;;
2024/04/21 17:36:06;;;;;;;7.70;4.10;;;;;;;6.15;57.26;100709.04;126978;1305;114990;-62
2024/04/21 17:39:53;;;;;;;;;;;;;;;;;;;;;
2024/04/21 17:43:47;;;;;;;;;;;;;;;;;;;;;
2024/04/21 17:47:38;;;;;;;;;;;;;;;;;;;;;
2024/04/21 17:51:15;;;;;;;5.50;3.60;;;;;;;6.07;57.83;100725.01;125404;1305;114901;-60
2024/04/21 17:54:22;;;;;;;6.60;3.80;;;;;;;6.02;57.95;100727.78;125784;1298;114816;-61
2024/04/21 17:57:55;;;;;;;5.30;3.40;;;;;;;5.99;58.38;100726.42;126149;1294;114974;-62
2024/04/21 18:01:59;;;;;;;5.50;2.60;;;;;;;5.95;58.38;100724.73;126137;1308;114849;-60
2024/04/21 18:05:34;;;;;;;;;;;;;;;;;;;;;
2024/04/21 18:09:04;;;;;;;;;;;;;;;5.84;58.67;100736.50;126267;1294;114974;-61
2024/04/21 18:12:57;;;;;;;;;;;;;;;;;;;;;
2024/04/21 18:16:52;;;;;;;5.10;2.90;;;;;;;5.79;59.00;100741.59;125626;1319;114860;-62
2024/04/21 18:20:46;;;;;;;;;;;;;;;;;;;;;
2024/04/21 18:24:50;;;;;;;;;;;;;;;;;;;;;
2024/04/21 18:28:50;;;;;;;9.50;6.00;;;;;;;5.75;59.59;100756.20;128106;1282;127677;-61
2024/04/21 18:32:02;;;;;;;9.40;6.40;;;;;;;5.71;59.67;100760.33;129031;1271;114800;-62
2024/04/21 18:35:30;;;;;;;10.00;5.10;;;;;;;5.70;59.63;100766.42;128938;1265;115172;-60
2024/04/21 18:39:03;;;;;;;7.90;5.60;;;;;;;5.67;59.83;100769.84;126749;1278;3615109;-61
2024/04/21 18:42:56;;;;;;;6.90;4.60;;;;;;;5.66;60.23;100769.70;129235;1278;115170;-61
2024/04/21 18:46:47;;;;;;;5.00;3.40;;;;;;;5.63;60.31;100766.20;129199;1266;129195;-61
2024/04/21 18:50:49;;;;;;;;;;;;;;;;;;;;;
2024/04/21 18:54:15;;;;;;;;;;;;;;;;;;;;;
2024/04/21 18:57:37;;;;;;;6.10;3.80;;;;;;;5.54;60.85;100773.14;128553;1277;114932;-61
2024/04/21 19:01:37;;;;;;;6.80;3.70;;;;;;;5.52;61.17;100774.42;128356;1287;116748;-61
2024/04/21 19:05:38;;;;;;;;;;;;;;;;;;;;;
2024/04/21 19:09:20;;;;;;;7.40;4.10;;;;;;;5.43;61.61;100776.55;128425;1278;115090;-62
2024/04/21 19:13:03;;;;;;;;;;;;;;;;;;;;;
2024/04/21 19:16:52;;;;;;;2.40;1.10;;;;;;;5.34;62.14;100779.39;128322;1292;114861;-61
2024/04/21 19:20:48;;;;;;;3.60;2.30;;;;;;;5.27;62.15;100777.94;126913;1300;114933;-62
2024/04/21 19:24:21;;;;;;;6.50;3.30;;;;;;;5.21;62.35;100781.92;126508;1289;129818;-61
2024/04/21 19:28:07;;;;;;;;;;;;;;;;;;;;;
2024/04/21 19:32:11;;;;;;;8.30;3.70;;;;;;;5.16;62.68;100779.37;126257;1292;636099;-63
2024/04/21 19:35:37;;;;;;;7.50;4.50;;;;;;;5.14;62.81;100776.23;128072;1290;129223;-60
2024/04/21 19:38:48;;;;;;;7.40;4.70;;;;;;;5.10;62.86;100777.73;128233;1293;114955;-60
2024/04/21 19:41:51;;;;;;;7.90;3.10;;;;;;;5.06;63.08;100774.61;128182;1277;114838;-62
2024/04/21 19:45:18;;;;;;;7.20;3.70;;;;;;;5.04;62.93;100779.61;124533;1276;5449120;-61
2024/04/21 19:53:07;;;;;;;5.90;3.80;;;;;;;4.96;63.48;100775.36;127699;1297;114905;-60
2024/04/21 19:56:54;;;;;;;6.00;3.30;;;;;;;4.94;63.53;100775.03;127109;1286;128077;-62
2024/04/21 19:59:58;;;;;;;7.20;4.10;;;;;;;4.91;63.81;100770.12;126852;1284;114973;-62
2024/04/21 20:03:46;;;;;;;6.00;3.80;;;;;;;4.90;64.06;100770.67;127155;1283;114959;-62
2024/04/21 20:07:21;;;;;;;7.60;3.80;;;;;;;4.86;64.00;100771.45;127074;1284;114980;-62
2024/04/21 20:10:50;;;;;;;6.10;3.20;;;;;;;4.84;64.19;100771.14;126586;1311;114955;-62
2024/04/21 20:22:19;;;;;;;6.30;3.90;;;;;;;4.78;64.68;100780.27;125948;1298;114834;-61
2024/04/21 20:26:19;;;;;;;;;;;;;;;;;;;;;
2024/04/21 20:30:22;;;;;;;6.80;3.90;;;;;;;4.75;65.04;100785.63;125072;1323;114977;-60
2024/04/21 20:34:19;;;;;;;8.60;3.50;;;;;;;4.76;65.14;100784.39;124301;1308;129920;-62
2024/04/21 20:38:20;;;;;;;7.60;3.40;;;;;;;4.74;65.25;100783.69;124284;1316;115036;-60
2024/04/21 20:46:16;;;;;;;8.80;4.10;;;;;;;4.72;65.58;100788.67;126250;1297;635558;-60
2024/04/21 20:49:30;;;;;;;6.30;4.10;;;;;;;4.67;65.63;100791.23;127427;1303;127823;-62
2024/04/21 20:53:17;;;;;;;9.10;3.90;;;;;;;4.66;65.67;100796.56;127451;1303;114788;-62
2024/04/21 20:57:03;;;;;;;7.80;3.60;;;;;;;4.64;65.84;100799.95;126621;1309;114975;-61
2024/04/21 21:01:08;;;;;;;8.60;4.00;;;;;;;4.62;66.11;100797.35;122381;1297;5425407;-62
2024/04/21 21:04:54;;;;;;;6.20;4.20;;;;;;;4.61;66.28;100805.15;125549;1319;114968;-61
2024/04/21 21:08:46;;;;;;;9.70;3.90;;;;;;;4.56;66.39;100800.81;125203;1306;114925;-60
2024/04/21 21:12:30;;;;;;;;;;;;;;;;;;;;;
2024/04/21 21:16:00;;;;;;;5.40;3.70;;;;;;;4.49;66.53;100798.44;123747;1333;114980;-61
2024/04/21 21:19:54;;;;;;;;;;;;;;;;;;;;;
2024/04/21 21:24:13;;;;;;;8.70;4.50;;;;;;;4.44;66.89;100794.98;126689;1286;636050;-59
2024/04/21 21:27:42;;;;;;;;;;;;;;;;;;;;;
2024/04/21 21:31:25;;;;;;;12.90;5.10;;;;;;;4.35;67.11;100792.31;134243;1256;112692;-60
2024/04/21 21:35:02;;;;;;;9.20;5.30;;;;;;;4.37;67.06;100800.23;134058;1263;113001;-60
2024/04/21 21:39:04;;;;;;;;;;;;;;;;;;;;;